Historique des mesures à Cassis (13260), France
Quotidien Résumé Juin 19, 2021 Unités:  Métrique    US   Métrique/US
Quotidien Hebdomadaire Mensuel Annuel
  Maximum: Minimum: Moyenne:
Température: 29.8 °C 18.9 °C 24.2 °C
Point de rosée: 16.4 °C 12.6 °C 14.5 °C
Humidité: 67% 43% 55%
Vitesse du vent: 12.2km/h 0km/h 5.6km/h
Rafales: 20.9km/h - -
Vent- - SW
Pression: 1010.9 hPa 1009.3 hPa -
Précipitations: 0.0 mm    
Historical Graphs
 
 
Mesures pour : Juin 19, 2021
Heure Temperature Point de rosée Pression Vent Vitesse du vent Rafales Humidité Pluie (par heure)
00:11 22.5 °C 13.2 °C 1010.4 hPa NW 8.6 km/h 11.9 km/h 56% 0.0 mm
01:11 21.6 °C 13.3 °C 1010.5 hPa NW 12.2 km/h 19.8 km/h 59% 0.0 mm
02:11 21.3 °C 13 °C 1010.4 hPa NW 5.4 km/h 14.8 km/h 59% 0.0 mm
03:11 20.6 °C 13.3 °C 1010.1 hPa WNW 10.4 km/h 20.9 km/h 63% 0.0 mm
04:11 20.1 °C 13.1 °C 1009.8 hPa NW 9.7 km/h 18 km/h 64% 0.0 mm
05:11 19.3 °C 13 °C 1009.5 hPa Calm   5.8 km/h 67% 0.0 mm
06:11 19.2 °C 12.9 °C 1009.3 hPa NW 10.8 km/h 14.4 km/h 67% 0.0 mm
07:11 18.9 °C 12.6 °C 1009.5 hPa NW 3.2 km/h 10.8 km/h 67% 0.0 mm
08:11 24.4 °C 14.8 °C 1009.5 hPa NW 4.7 km/h 11.9 km/h 55% 0.0 mm
09:11 23.5 °C 13.6 °C 1009.6 hPa NNW 3.6 km/h 8.6 km/h 54% 0.0 mm
10:11 22.9 °C 13.9 °C 1009.9 hPa ESE 5 km/h 7.6 km/h 57% 0.0 mm
11:11 25.4 °C 16 °C 1010.0 hPa ESE 8.6 km/h 9.4 km/h 56% 0.0 mm
12:11 27.8 °C 16.1 °C 1010.2 hPa South 7.2 km/h 7.6 km/h 49% 0.0 mm
13:11 28.6 °C 16.2 °C 1010.0 hPa Calm   7.2 km/h 47% 0.0 mm
14:11 29.4 °C 16.2 °C 1009.6 hPa ESE 6.1 km/h 11.2 km/h 45% 0.0 mm
15:11 29.7 °C 15.8 °C 1009.4 hPa South 7.6 km/h 7.6 km/h 43% 0.0 mm
16:11 29.8 °C 15.9 °C 1009.5 hPa SE 1.8 km/h 10.4 km/h 43% 0.0 mm
17:11 28.1 °C 16.4 °C 1009.9 hPa Calm   7.2 km/h 49% 0.0 mm
18:11 27.3 °C 16 °C 1009.9 hPa SE 5.4 km/h 5.8 km/h 50% 0.0 mm
19:11 27.1 °C 15.5 °C 1009.8 hPa SE 2.2 km/h 4.7 km/h 49% 0.0 mm
20:11 24.8 °C 15.4 °C 1009.9 hPa Calm   1.1 km/h 56% 0.0 mm
21:11 23.2 °C 13.6 °C 1009.9 hPa WNW 4.7 km/h 13.7 km/h 55% 0.0 mm
22:11 22.8 °C 13.8 °C 1010.6 hPa WNW 12.2 km/h 16.9 km/h 57% 0.0 mm
23:11 23.1 °C 13.8 °C 1010.9 hPa NE 4.7 km/h 9 km/h 56% 0.0 mm
Observations météo à CASSIS
WU-History script by Weather Underground - 2 mb